sensor_id;sensor_type;location;lat;lon;timestamp;P1;durP1;ratioP1;P2;durP2;ratioP2
20758;SDS011;10539;53.686;9.158;2022-10-18T00:01:00;34.83;;;16.23;;
20758;SDS011;10539;53.686;9.158;2022-10-18T00:03:26;38.17;;;16.77;;
20758;SDS011;10539;53.686;9.158;2022-10-18T00:05:52;42.30;;;17.57;;
20758;SDS011;10539;53.686;9.158;2022-10-18T00:08:20;41.80;;;17.17;;
20758;SDS011;10539;53.686;9.158;2022-10-18T00:10:46;40.60;;;16.73;;
20758;SDS011;10539;53.686;9.158;2022-10-18T00:13:13;34.60;;;17.30;;
20758;SDS011;10539;53.686;9.158;2022-10-18T00:15:39;42.37;;;16.97;;
20758;SDS011;10539;53.686;9.158;2022-10-18T00:18:11;38.53;;;17.50;;
20758;SDS011;10539;53.686;9.158;2022-10-18T00:20:37;43.03;;;18.43;;
20758;SDS011;10539;53.686;9.158;2022-10-18T00:23:03;40.83;;;18.40;;
20758;SDS011;10539;53.686;9.158;2022-10-18T00:25:28;44.63;;;18.70;;
20758;SDS011;10539;53.686;9.158;2022-10-18T00:27:54;44.23;;;19.50;;
20758;SDS011;10539;53.686;9.158;2022-10-18T00:30:20;43.03;;;19.27;;
20758;SDS011;10539;53.686;9.158;2022-10-18T00:32:45;43.03;;;18.03;;
20758;SDS011;10539;53.686;9.158;2022-10-18T00:35:11;42.10;;;19.77;;
20758;SDS011;10539;53.686;9.158;2022-10-18T00:37:37;40.17;;;18.07;;
20758;SDS011;10539;53.686;9.158;2022-10-18T00:40:03;42.70;;;17.77;;
20758;SDS011;10539;53.686;9.158;2022-10-18T00:42:30;42.20;;;19.13;;
20758;SDS011;10539;53.686;9.158;2022-10-18T00:45:04;45.93;;;19.33;;
20758;SDS011;10539;53.686;9.158;2022-10-18T00:47:30;42.57;;;19.70;;
20758;SDS011;10539;53.686;9.158;2022-10-18T00:49:59;46.10;;;18.63;;
20758;SDS011;10539;53.686;9.158;2022-10-18T00:52:42;46.87;;;20.73;;
20758;SDS011;10539;53.686;9.158;2022-10-18T00:55:13;48.53;;;18.93;;
20758;SDS011;10539;53.686;9.158;2022-10-18T00:57:40;49.43;;;20.30;;
20758;SDS011;10539;53.686;9.158;2022-10-18T01:00:07;52.33;;;20.17;;
20758;SDS011;10539;53.686;9.158;2022-10-18T01:02:37;45.97;;;19.27;;
20758;SDS011;10539;53.686;9.158;2022-10-18T01:05:04;51.13;;;20.50;;
20758;SDS011;10539;53.686;9.158;2022-10-18T01:18:36;51.37;;;20.00;;
20758;SDS011;10539;53.686;9.158;2022-10-18T01:21:17;46.47;;;19.17;;
20758;SDS011;10539;53.686;9.158;2022-10-18T01:32:21;43.83;;;19.40;;
20758;SDS011;10539;53.686;9.158;2022-10-18T01:35:01;47.23;;;19.20;;
20758;SDS011;10539;53.686;9.158;2022-10-18T01:37:31;52.20;;;20.60;;
20758;SDS011;10539;53.686;9.158;2022-10-18T01:39:59;50.07;;;19.27;;
20758;SDS011;10539;53.686;9.158;2022-10-18T01:42:31;42.03;;;19.00;;
20758;SDS011;10539;53.686;9.158;2022-10-18T01:44:57;48.17;;;21.83;;
20758;SDS011;10539;53.686;9.158;2022-10-18T01:47:25;51.10;;;20.77;;
20758;SDS011;10539;53.686;9.158;2022-10-18T01:50:02;47.00;;;20.27;;
20758;SDS011;10539;53.686;9.158;2022-10-18T01:52:30;46.83;;;20.50;;
20758;SDS011;10539;53.686;9.158;2022-10-18T01:54:57;48.53;;;20.63;;
20758;SDS011;10539;53.686;9.158;2022-10-18T02:00:27;44.87;;;20.60;;
20758;SDS011;10539;53.686;9.158;2022-10-18T02:03:00;46.50;;;19.83;;
20758;SDS011;10539;53.686;9.158;2022-10-18T02:05:38;49.57;;;21.80;;
20758;SDS011;10539;53.686;9.158;2022-10-18T02:13:37;55.13;;;22.40;;
20758;SDS011;10539;53.686;9.158;2022-10-18T02:16:11;50.40;;;22.03;;
20758;SDS011;10539;53.686;9.158;2022-10-18T02:18:51;57.83;;;22.63;;
20758;SDS011;10539;53.686;9.158;2022-10-18T02:21:21;54.37;;;23.03;;
20758;SDS011;10539;53.686;9.158;2022-10-18T02:23:48;56.23;;;22.63;;
20758;SDS011;10539;53.686;9.158;2022-10-18T02:26:15;57.67;;;25.43;;
20758;SDS011;10539;53.686;9.158;2022-10-18T02:28:41;53.23;;;23.33;;
20758;SDS011;10539;53.686;9.158;2022-10-18T02:31:18;54.93;;;23.10;;
20758;SDS011;10539;53.686;9.158;2022-10-18T02:34:00;62.43;;;22.57;;
20758;SDS011;10539;53.686;9.158;2022-10-18T02:36:33;55.93;;;22.00;;
20758;SDS011;10539;53.686;9.158;2022-10-18T02:39:05;51.30;;;22.80;;
20758;SDS011;10539;53.686;9.158;2022-10-18T02:41:38;59.23;;;23.60;;
20758;SDS011;10539;53.686;9.158;2022-10-18T02:44:04;51.70;;;20.90;;
20758;SDS011;10539;53.686;9.158;2022-10-18T02:46:30;64.33;;;23.33;;
20758;SDS011;10539;53.686;9.158;2022-10-18T02:48:55;56.57;;;22.17;;
20758;SDS011;10539;53.686;9.158;2022-10-18T02:51:22;62.97;;;23.30;;
20758;SDS011;10539;53.686;9.158;2022-10-18T02:53:47;63.87;;;23.93;;
20758;SDS011;10539;53.686;9.158;2022-10-18T02:56:13;55.70;;;21.70;;
20758;SDS011;10539;53.686;9.158;2022-10-18T02:58:39;65.27;;;22.27;;
20758;SDS011;10539;53.686;9.158;2022-10-18T03:01:05;54.67;;;22.23;;
20758;SDS011;10539;53.686;9.158;2022-10-18T03:03:30;58.50;;;21.23;;
20758;SDS011;10539;53.686;9.158;2022-10-18T03:05:56;58.23;;;23.07;;
20758;SDS011;10539;53.686;9.158;2022-10-18T03:08:22;58.07;;;21.83;;
20758;SDS011;10539;53.686;9.158;2022-10-18T03:10:48;61.47;;;22.33;;
20758;SDS011;10539;53.686;9.158;2022-10-18T03:13:13;59.30;;;21.73;;
20758;SDS011;10539;53.686;9.158;2022-10-18T03:15:39;58.30;;;20.60;;
20758;SDS011;10539;53.686;9.158;2022-10-18T03:18:06;66.90;;;22.70;;
20758;SDS011;10539;53.686;9.158;2022-10-18T03:20:32;56.53;;;21.53;;
20758;SDS011;10539;53.686;9.158;2022-10-18T03:22:58;54.67;;;22.00;;
20758;SDS011;10539;53.686;9.158;2022-10-18T03:25:24;55.20;;;21.10;;
20758;SDS011;10539;53.686;9.158;2022-10-18T03:27:49;53.07;;;20.83;;
20758;SDS011;10539;53.686;9.158;2022-10-18T03:30:15;61.33;;;21.97;;
20758;SDS011;10539;53.686;9.158;2022-10-18T03:32:41;57.40;;;21.23;;
20758;SDS011;10539;53.686;9.158;2022-10-18T03:35:07;52.83;;;20.53;;
20758;SDS011;10539;53.686;9.158;2022-10-18T03:37:33;60.13;;;21.33;;
20758;SDS011;10539;53.686;9.158;2022-10-18T03:39:59;54.90;;;20.43;;
20758;SDS011;10539;53.686;9.158;2022-10-18T03:42:25;49.47;;;19.27;;
20758;SDS011;10539;53.686;9.158;2022-10-18T03:44:51;57.13;;;21.90;;
20758;SDS011;10539;53.686;9.158;2022-10-18T03:47:17;64.87;;;23.60;;
20758;SDS011;10539;53.686;9.158;2022-10-18T03:49:43;58.33;;;22.87;;
20758;SDS011;10539;53.686;9.158;2022-10-18T03:52:09;59.67;;;23.47;;
20758;SDS011;10539;53.686;9.158;2022-10-18T03:54:35;57.10;;;22.00;;
20758;SDS011;10539;53.686;9.158;2022-10-18T03:57:01;54.37;;;21.97;;
20758;SDS011;10539;53.686;9.158;2022-10-18T03:59:26;57.87;;;22.37;;
20758;SDS011;10539;53.686;9.158;2022-10-18T04:01:52;57.47;;;22.20;;
20758;SDS011;10539;53.686;9.158;2022-10-18T04:04:18;53.80;;;20.20;;
20758;SDS011;10539;53.686;9.158;2022-10-18T04:06:43;65.37;;;21.77;;
20758;SDS011;10539;53.686;9.158;2022-10-18T04:09:09;65.73;;;20.97;;
20758;SDS011;10539;53.686;9.158;2022-10-18T04:11:35;59.93;;;21.03;;
20758;SDS011;10539;53.686;9.158;2022-10-18T04:14:01;61.63;;;21.23;;
20758;SDS011;10539;53.686;9.158;2022-10-18T04:16:27;71.50;;;22.23;;
20758;SDS011;10539;53.686;9.158;2022-10-18T04:18:53;77.03;;;24.20;;
20758;SDS011;10539;53.686;9.158;2022-10-18T04:21:19;83.43;;;24.47;;
20758;SDS011;10539;53.686;9.158;2022-10-18T04:23:48;75.63;;;22.97;;
20758;SDS011;10539;53.686;9.158;2022-10-18T04:26:15;65.83;;;22.13;;
20758;SDS011;10539;53.686;9.158;2022-10-18T04:28:42;76.47;;;23.47;;
20758;SDS011;10539;53.686;9.158;2022-10-18T04:31:08;60.33;;;21.13;;
20758;SDS011;10539;53.686;9.158;2022-10-18T04:33:34;71.10;;;21.27;;
20758;SDS011;10539;53.686;9.158;2022-10-18T04:36:00;67.00;;;22.73;;
20758;SDS011;10539;53.686;9.158;2022-10-18T04:38:26;69.47;;;24.03;;
20758;SDS011;10539;53.686;9.158;2022-10-18T04:40:52;63.47;;;22.43;;
20758;SDS011;10539;53.686;9.158;2022-10-18T04:43:17;65.17;;;21.97;;
20758;SDS011;10539;53.686;9.158;2022-10-18T04:45:44;59.40;;;20.97;;
20758;SDS011;10539;53.686;9.158;2022-10-18T04:48:10;65.73;;;22.73;;
20758;SDS011;10539;53.686;9.158;2022-10-18T04:50:36;65.67;;;23.13;;
20758;SDS011;10539;53.686;9.158;2022-10-18T04:53:02;70.30;;;22.43;;
20758;SDS011;10539;53.686;9.158;2022-10-18T04:55:28;69.60;;;23.33;;
20758;SDS011;10539;53.686;9.158;2022-10-18T04:57:54;65.13;;;23.17;;
20758;SDS011;10539;53.686;9.158;2022-10-18T05:00:20;68.60;;;24.57;;
20758;SDS011;10539;53.686;9.158;2022-10-18T05:02:45;66.50;;;22.37;;
20758;SDS011;10539;53.686;9.158;2022-10-18T05:05:11;66.80;;;21.33;;
20758;SDS011;10539;53.686;9.158;2022-10-18T05:07:37;68.17;;;22.63;;
20758;SDS011;10539;53.686;9.158;2022-10-18T05:10:03;58.37;;;21.43;;
20758;SDS011;10539;53.686;9.158;2022-10-18T05:12:29;69.73;;;22.70;;
20758;SDS011;10539;53.686;9.158;2022-10-18T05:14:55;63.97;;;22.77;;
20758;SDS011;10539;53.686;9.158;2022-10-18T05:17:20;55.97;;;20.80;;
20758;SDS011;10539;53.686;9.158;2022-10-18T05:19:46;63.07;;;21.47;;
20758;SDS011;10539;53.686;9.158;2022-10-18T05:22:13;70.10;;;22.40;;
20758;SDS011;10539;53.686;9.158;2022-10-18T05:24:38;62.63;;;22.87;;
20758;SDS011;10539;53.686;9.158;2022-10-18T05:27:04;64.97;;;23.03;;
20758;SDS011;10539;53.686;9.158;2022-10-18T05:29:30;61.27;;;22.10;;
20758;SDS011;10539;53.686;9.158;2022-10-18T05:31:56;57.40;;;21.67;;
20758;SDS011;10539;53.686;9.158;2022-10-18T05:34:21;59.53;;;21.10;;
20758;SDS011;10539;53.686;9.158;2022-10-18T05:36:48;58.07;;;22.13;;
20758;SDS011;10539;53.686;9.158;2022-10-18T05:39:14;61.37;;;23.07;;
20758;SDS011;10539;53.686;9.158;2022-10-18T05:41:40;59.17;;;21.70;;
20758;SDS011;10539;53.686;9.158;2022-10-18T05:44:06;54.30;;;19.23;;
20758;SDS011;10539;53.686;9.158;2022-10-18T05:46:32;63.80;;;20.20;;
20758;SDS011;10539;53.686;9.158;2022-10-18T05:48:58;63.73;;;21.47;;
20758;SDS011;10539;53.686;9.158;2022-10-18T05:51:23;57.00;;;20.90;;
20758;SDS011;10539;53.686;9.158;2022-10-18T05:53:49;62.63;;;21.40;;
20758;SDS011;10539;53.686;9.158;2022-10-18T05:56:15;60.33;;;20.77;;
20758;SDS011;10539;53.686;9.158;2022-10-18T05:58:41;62.60;;;20.73;;
20758;SDS011;10539;53.686;9.158;2022-10-18T06:01:07;54.93;;;19.47;;
20758;SDS011;10539;53.686;9.158;2022-10-18T06:03:34;58.10;;;21.67;;
20758;SDS011;10539;53.686;9.158;2022-10-18T06:06:00;57.30;;;21.03;;
20758;SDS011;10539;53.686;9.158;2022-10-18T06:08:27;54.13;;;19.73;;
20758;SDS011;10539;53.686;9.158;2022-10-18T06:10:53;63.23;;;20.50;;
20758;SDS011;10539;53.686;9.158;2022-10-18T06:13:19;57.53;;;19.60;;
20758;SDS011;10539;53.686;9.158;2022-10-18T06:15:45;57.53;;;20.53;;
20758;SDS011;10539;53.686;9.158;2022-10-18T06:18:10;62.33;;;20.77;;
20758;SDS011;10539;53.686;9.158;2022-10-18T06:20:36;65.63;;;21.20;;
20758;SDS011;10539;53.686;9.158;2022-10-18T06:23:02;64.63;;;20.97;;
20758;SDS011;10539;53.686;9.158;2022-10-18T06:25:28;69.30;;;21.53;;
20758;SDS011;10539;53.686;9.158;2022-10-18T06:27:54;58.07;;;19.80;;
20758;SDS011;10539;53.686;9.158;2022-10-18T06:30:19;63.70;;;19.70;;
20758;SDS011;10539;53.686;9.158;2022-10-18T06:32:45;64.53;;;20.17;;
20758;SDS011;10539;53.686;9.158;2022-10-18T06:35:11;57.07;;;19.33;;
20758;SDS011;10539;53.686;9.158;2022-10-18T06:37:37;54.90;;;20.00;;
20758;SDS011;10539;53.686;9.158;2022-10-18T06:40:03;54.33;;;19.00;;
20758;SDS011;10539;53.686;9.158;2022-10-18T06:42:30;53.20;;;19.57;;
20758;SDS011;10539;53.686;9.158;2022-10-18T06:44:56;57.40;;;19.67;;
20758;SDS011;10539;53.686;9.158;2022-10-18T06:47:22;63.83;;;20.23;;
20758;SDS011;10539;53.686;9.158;2022-10-18T06:49:48;52.43;;;19.60;;
20758;SDS011;10539;53.686;9.158;2022-10-18T06:52:16;58.33;;;18.53;;
20758;SDS011;10539;53.686;9.158;2022-10-18T06:54:42;49.83;;;18.43;;
20758;SDS011;10539;53.686;9.158;2022-10-18T06:57:08;44.20;;;17.23;;
20758;SDS011;10539;53.686;9.158;2022-10-18T06:59:33;52.73;;;18.83;;
20758;SDS011;10539;53.686;9.158;2022-10-18T07:01:59;58.50;;;18.17;;
20758;SDS011;10539;53.686;9.158;2022-10-18T07:04:28;50.47;;;17.40;;
20758;SDS011;10539;53.686;9.158;2022-10-18T07:06:56;51.50;;;17.13;;
20758;SDS011;10539;53.686;9.158;2022-10-18T07:09:22;58.53;;;18.53;;
20758;SDS011;10539;53.686;9.158;2022-10-18T07:11:48;48.63;;;17.90;;
20758;SDS011;10539;53.686;9.158;2022-10-18T07:14:14;46.00;;;16.33;;
20758;SDS011;10539;53.686;9.158;2022-10-18T07:16:40;52.13;;;16.77;;
20758;SDS011;10539;53.686;9.158;2022-10-18T07:19:06;43.90;;;15.20;;
20758;SDS011;10539;53.686;9.158;2022-10-18T07:21:31;46.50;;;17.13;;
20758;SDS011;10539;53.686;9.158;2022-10-18T07:23:57;49.77;;;17.07;;
20758;SDS011;10539;53.686;9.158;2022-10-18T07:26:23;46.90;;;17.00;;
20758;SDS011;10539;53.686;9.158;2022-10-18T07:28:52;54.70;;;17.73;;
20758;SDS011;10539;53.686;9.158;2022-10-18T07:31:24;44.60;;;16.80;;
20758;SDS011;10539;53.686;9.158;2022-10-18T07:33:50;55.87;;;17.77;;
20758;SDS011;10539;53.686;9.158;2022-10-18T07:36:16;54.57;;;18.00;;
20758;SDS011;10539;53.686;9.158;2022-10-18T07:38:42;49.13;;;17.40;;
20758;SDS011;10539;53.686;9.158;2022-10-18T07:41:10;52.07;;;18.23;;
20758;SDS011;10539;53.686;9.158;2022-10-18T07:43:39;46.10;;;16.43;;
20758;SDS011;10539;53.686;9.158;2022-10-18T07:46:06;52.47;;;16.60;;
20758;SDS011;10539;53.686;9.158;2022-10-18T07:48:31;54.20;;;17.80;;
20758;SDS011;10539;53.686;9.158;2022-10-18T07:50:58;47.10;;;17.83;;
20758;SDS011;10539;53.686;9.158;2022-10-18T07:53:24;55.60;;;17.83;;
20758;SDS011;10539;53.686;9.158;2022-10-18T07:55:50;58.17;;;18.47;;
20758;SDS011;10539;53.686;9.158;2022-10-18T07:58:16;59.27;;;18.07;;
20758;SDS011;10539;53.686;9.158;2022-10-18T08:00:42;54.70;;;18.87;;
20758;SDS011;10539;53.686;9.158;2022-10-18T08:03:07;50.83;;;17.90;;
20758;SDS011;10539;53.686;9.158;2022-10-18T08:05:33;60.70;;;19.97;;
20758;SDS011;10539;53.686;9.158;2022-10-18T08:07:59;57.50;;;20.13;;
20758;SDS011;10539;53.686;9.158;2022-10-18T08:10:25;58.47;;;20.63;;
20758;SDS011;10539;53.686;9.158;2022-10-18T08:12:52;60.67;;;19.40;;
20758;SDS011;10539;53.686;9.158;2022-10-18T08:15:18;60.47;;;20.83;;
20758;SDS011;10539;53.686;9.158;2022-10-18T08:17:47;59.43;;;20.50;;
20758;SDS011;10539;53.686;9.158;2022-10-18T08:20:13;57.77;;;20.67;;
20758;SDS011;10539;53.686;9.158;2022-10-18T08:22:39;55.23;;;20.60;;
20758;SDS011;10539;53.686;9.158;2022-10-18T08:25:05;55.07;;;19.20;;
20758;SDS011;10539;53.686;9.158;2022-10-18T08:27:31;53.80;;;19.27;;
20758;SDS011;10539;53.686;9.158;2022-10-18T08:29:57;54.50;;;19.93;;
20758;SDS011;10539;53.686;9.158;2022-10-18T08:32:24;58.37;;;20.73;;
20758;SDS011;10539;53.686;9.158;2022-10-18T08:34:50;55.90;;;21.20;;
20758;SDS011;10539;53.686;9.158;2022-10-18T08:37:16;53.40;;;19.87;;
20758;SDS011;10539;53.686;9.158;2022-10-18T08:39:42;49.57;;;18.97;;
20758;SDS011;10539;53.686;9.158;2022-10-18T08:42:11;48.13;;;18.30;;
20758;SDS011;10539;53.686;9.158;2022-10-18T08:44:48;44.67;;;16.93;;
20758;SDS011;10539;53.686;9.158;2022-10-18T08:47:16;40.33;;;18.57;;
20758;SDS011;10539;53.686;9.158;2022-10-18T08:57:36;40.67;;;17.57;;
20758;SDS011;10539;53.686;9.158;2022-10-18T09:00:15;53.00;;;19.23;;
20758;SDS011;10539;53.686;9.158;2022-10-18T09:02:47;40.77;;;18.10;;
20758;SDS011;10539;53.686;9.158;2022-10-18T09:16:59;32.53;;;13.33;;
20758;SDS011;10539;53.686;9.158;2022-10-18T09:25:20;31.97;;;12.73;;
20758;SDS011;10539;53.686;9.158;2022-10-18T09:35:41;28.57;;;12.90;;
20758;SDS011;10539;53.686;9.158;2022-10-18T09:38:13;27.70;;;12.50;;
20758;SDS011;10539;53.686;9.158;2022-10-18T09:40:46;28.47;;;12.77;;
20758;SDS011;10539;53.686;9.158;2022-10-18T09:43:22;25.77;;;11.63;;
20758;SDS011;10539;53.686;9.158;2022-10-18T09:45:57;26.00;;;11.20;;
20758;SDS011;10539;53.686;9.158;2022-10-18T09:48:27;26.37;;;11.83;;
20758;SDS011;10539;53.686;9.158;2022-10-18T09:51:07;28.27;;;12.07;;
20758;SDS011;10539;53.686;9.158;2022-10-18T09:56:27;27.87;;;11.50;;
20758;SDS011;10539;53.686;9.158;2022-10-18T09:58:55;28.07;;;11.90;;
20758;SDS011;10539;53.686;9.158;2022-10-18T10:01:25;22.67;;;9.33;;
20758;SDS011;10539;53.686;9.158;2022-10-18T10:03:55;27.10;;;9.50;;
20758;SDS011;10539;53.686;9.158;2022-10-18T10:06:31;20.63;;;9.40;;
20758;SDS011;10539;53.686;9.158;2022-10-18T10:08:59;21.30;;;9.33;;
20758;SDS011;10539;53.686;9.158;2022-10-18T10:11:34;24.77;;;9.60;;
20758;SDS011;10539;53.686;9.158;2022-10-18T10:14:19;24.00;;;10.20;;
20758;SDS011;10539;53.686;9.158;2022-10-18T10:16:52;26.03;;;8.97;;
20758;SDS011;10539;53.686;9.158;2022-10-18T10:19:22;21.43;;;9.17;;
20758;SDS011;10539;53.686;9.158;2022-10-18T10:21:53;18.47;;;6.70;;
20758;SDS011;10539;53.686;9.158;2022-10-18T10:24:23;25.33;;;6.83;;
20758;SDS011;10539;53.686;9.158;2022-10-18T10:27:00;20.27;;;7.63;;
20758;SDS011;10539;53.686;9.158;2022-10-18T10:32:13;19.20;;;6.90;;
20758;SDS011;10539;53.686;9.158;2022-10-18T10:34:40;18.63;;;7.27;;
20758;SDS011;10539;53.686;9.158;2022-10-18T10:42:47;20.10;;;7.30;;
20758;SDS011;10539;53.686;9.158;2022-10-18T10:45:15;27.00;;;7.60;;
20758;SDS011;10539;53.686;9.158;2022-10-18T10:47:41;25.70;;;8.00;;
20758;SDS011;10539;53.686;9.158;2022-10-18T10:50:10;19.27;;;6.43;;
20758;SDS011;10539;53.686;9.158;2022-10-18T10:52:37;19.87;;;5.20;;
20758;SDS011;10539;53.686;9.158;2022-10-18T10:55:05;15.33;;;4.73;;
20758;SDS011;10539;53.686;9.158;2022-10-18T10:57:42;12.13;;;4.70;;
20758;SDS011;10539;53.686;9.158;2022-10-18T11:00:32;15.47;;;5.53;;
20758;SDS011;10539;53.686;9.158;2022-10-18T11:03:10;18.20;;;3.27;;
20758;SDS011;10539;53.686;9.158;2022-10-18T11:05:43;20.43;;;4.30;;
20758;SDS011;10539;53.686;9.158;2022-10-18T11:08:12;14.80;;;3.33;;
20758;SDS011;10539;53.686;9.158;2022-10-18T11:13:39;14.23;;;3.43;;
20758;SDS011;10539;53.686;9.158;2022-10-18T11:16:15;13.33;;;3.13;;
20758;SDS011;10539;53.686;9.158;2022-10-18T11:18:51;9.43;;;2.97;;
20758;SDS011;10539;53.686;9.158;2022-10-18T11:21:21;14.67;;;2.73;;
20758;SDS011;10539;53.686;9.158;2022-10-18T11:23:51;13.87;;;3.07;;
20758;SDS011;10539;53.686;9.158;2022-10-18T11:29:05;11.97;;;1.93;;
20758;SDS011;10539;53.686;9.158;2022-10-18T11:31:38;12.03;;;1.87;;
20758;SDS011;10539;53.686;9.158;2022-10-18T11:45:40;16.17;;;2.30;;
20758;SDS011;10539;53.686;9.158;2022-10-18T11:48:16;8.27;;;1.93;;
20758;SDS011;10539;53.686;9.158;2022-10-18T11:51:12;13.00;;;1.73;;
20758;SDS011;10539;53.686;9.158;2022-10-18T11:56:17;8.57;;;1.67;;
20758;SDS011;10539;53.686;9.158;2022-10-18T12:01:43;15.33;;;1.63;;
20758;SDS011;10539;53.686;9.158;2022-10-18T12:04:22;10.27;;;1.77;;
20758;SDS011;10539;53.686;9.158;2022-10-18T12:06:52;11.67;;;1.70;;
20758;SDS011;10539;53.686;9.158;2022-10-18T12:12:19;10.90;;;1.73;;
20758;SDS011;10539;53.686;9.158;2022-10-18T12:14:58;9.37;;;1.43;;
20758;SDS011;10539;53.686;9.158;2022-10-18T12:17:42;5.80;;;1.50;;
20758;SDS011;10539;53.686;9.158;2022-10-18T12:20:15;6.67;;;1.57;;
20758;SDS011;10539;53.686;9.158;2022-10-18T12:22:53;10.20;;;1.70;;
20758;SDS011;10539;53.686;9.158;2022-10-18T12:25:20;6.53;;;1.67;;
20758;SDS011;10539;53.686;9.158;2022-10-18T12:28:13;10.73;;;1.70;;
20758;SDS011;10539;53.686;9.158;2022-10-18T12:33:27;14.20;;;1.70;;
20758;SDS011;10539;53.686;9.158;2022-10-18T12:36:04;7.23;;;1.73;;
20758;SDS011;10539;53.686;9.158;2022-10-18T12:38:43;7.97;;;1.70;;
20758;SDS011;10539;53.686;9.158;2022-10-18T12:41:20;15.67;;;1.80;;
20758;SDS011;10539;53.686;9.158;2022-10-18T12:44:03;11.17;;;1.70;;
20758;SDS011;10539;53.686;9.158;2022-10-18T12:47:17;10.90;;;1.70;;
20758;SDS011;10539;53.686;9.158;2022-10-18T12:51:53;12.27;;;1.70;;
20758;SDS011;10539;53.686;9.158;2022-10-18T12:54:24;15.70;;;2.10;;
20758;SDS011;10539;53.686;9.158;2022-10-18T12:56:55;12.03;;;1.80;;
20758;SDS011;10539;53.686;9.158;2022-10-18T13:09:27;11.57;;;2.20;;
20758;SDS011;10539;53.686;9.158;2022-10-18T13:12:43;9.07;;;1.60;;
20758;SDS011;10539;53.686;9.158;2022-10-18T13:17:45;11.27;;;1.30;;
20758;SDS011;10539;53.686;9.158;2022-10-18T13:23:37;11.93;;;2.00;;
20758;SDS011;10539;53.686;9.158;2022-10-18T13:28:21;9.47;;;1.57;;
20758;SDS011;10539;53.686;9.158;2022-10-18T13:33:42;8.40;;;1.10;;
20758;SDS011;10539;53.686;9.158;2022-10-18T13:41:23;13.30;;;2.00;;
20758;SDS011;10539;53.686;9.158;2022-10-18T13:52:04;14.53;;;1.60;;
20758;SDS011;10539;53.686;9.158;2022-10-18T14:06:06;9.47;;;1.40;;
20758;SDS011;10539;53.686;9.158;2022-10-18T14:08:41;11.73;;;1.70;;
20758;SDS011;10539;53.686;9.158;2022-10-18T14:11:29;12.37;;;1.60;;
20758;SDS011;10539;53.686;9.158;2022-10-18T14:16:47;11.77;;;1.63;;
20758;SDS011;10539;53.686;9.158;2022-10-18T14:19:22;10.33;;;1.20;;
20758;SDS011;10539;53.686;9.158;2022-10-18T14:21:55;6.50;;;1.37;;
20758;SDS011;10539;53.686;9.158;2022-10-18T14:24:29;11.40;;;1.97;;
20758;SDS011;10539;53.686;9.158;2022-10-18T14:27:11;11.30;;;1.50;;
20758;SDS011;10539;53.686;9.158;2022-10-18T14:29:42;11.73;;;1.50;;
20758;SDS011;10539;53.686;9.158;2022-10-18T14:32:09;13.77;;;1.40;;
20758;SDS011;10539;53.686;9.158;2022-10-18T14:34:51;12.93;;;1.40;;
20758;SDS011;10539;53.686;9.158;2022-10-18T14:37:24;12.43;;;1.47;;
20758;SDS011;10539;53.686;9.158;2022-10-18T14:39:57;7.07;;;1.60;;
20758;SDS011;10539;53.686;9.158;2022-10-18T14:42:23;13.07;;;1.50;;
20758;SDS011;10539;53.686;9.158;2022-10-18T14:44:50;6.40;;;1.57;;
20758;SDS011;10539;53.686;9.158;2022-10-18T14:49:49;11.87;;;1.77;;
20758;SDS011;10539;53.686;9.158;2022-10-18T14:52:31;8.63;;;1.40;;
20758;SDS011;10539;53.686;9.158;2022-10-18T14:54:57;8.13;;;1.50;;
20758;SDS011;10539;53.686;9.158;2022-10-18T14:57:31;11.57;;;1.53;;
20758;SDS011;10539;53.686;9.158;2022-10-18T15:00:00;8.87;;;1.20;;
20758;SDS011;10539;53.686;9.158;2022-10-18T15:02:32;14.03;;;1.60;;
20758;SDS011;10539;53.686;9.158;2022-10-18T15:07:32;8.40;;;1.47;;
20758;SDS011;10539;53.686;9.158;2022-10-18T15:09:58;11.33;;;1.83;;
20758;SDS011;10539;53.686;9.158;2022-10-18T15:12:27;10.30;;;1.40;;
20758;SDS011;10539;53.686;9.158;2022-10-18T15:14:54;7.13;;;1.27;;
20758;SDS011;10539;53.686;9.158;2022-10-18T15:17:24;7.73;;;1.63;;
20758;SDS011;10539;53.686;9.158;2022-10-18T15:22:27;12.40;;;1.83;;
20758;SDS011;10539;53.686;9.158;2022-10-18T15:27:36;12.43;;;1.60;;
20758;SDS011;10539;53.686;9.158;2022-10-18T15:30:07;7.50;;;1.40;;
20758;SDS011;10539;53.686;9.158;2022-10-18T15:32:45;8.37;;;1.33;;
20758;SDS011;10539;53.686;9.158;2022-10-18T15:35:23;8.07;;;1.30;;
20758;SDS011;10539;53.686;9.158;2022-10-18T15:37:51;5.33;;;1.20;;
20758;SDS011;10539;53.686;9.158;2022-10-18T15:42:48;11.20;;;1.50;;
20758;SDS011;10539;53.686;9.158;2022-10-18T15:47:59;6.70;;;1.23;;
20758;SDS011;10539;53.686;9.158;2022-10-18T15:50:41;8.17;;;1.20;;
20758;SDS011;10539;53.686;9.158;2022-10-18T15:55:45;13.03;;;2.00;;
20758;SDS011;10539;53.686;9.158;2022-10-18T15:58:17;14.37;;;2.00;;
20758;SDS011;10539;53.686;9.158;2022-10-18T16:00:45;12.43;;;1.87;;
20758;SDS011;10539;53.686;9.158;2022-10-18T16:03:11;11.07;;;1.90;;
20758;SDS011;10539;53.686;9.158;2022-10-18T16:05:38;9.83;;;1.60;;
20758;SDS011;10539;53.686;9.158;2022-10-18T16:08:04;10.17;;;1.30;;
20758;SDS011;10539;53.686;9.158;2022-10-18T16:10:30;13.77;;;1.60;;
20758;SDS011;10539;53.686;9.158;2022-10-18T16:12:57;8.80;;;1.47;;
20758;SDS011;10539;53.686;9.158;2022-10-18T16:15:22;10.57;;;1.37;;
20758;SDS011;10539;53.686;9.158;2022-10-18T16:17:48;12.33;;;2.03;;
20758;SDS011;10539;53.686;9.158;2022-10-18T16:20:19;10.43;;;1.50;;
20758;SDS011;10539;53.686;9.158;2022-10-18T16:22:47;12.03;;;1.83;;
20758;SDS011;10539;53.686;9.158;2022-10-18T16:25:13;6.97;;;1.27;;
20758;SDS011;10539;53.686;9.158;2022-10-18T16:27:39;14.43;;;1.80;;
20758;SDS011;10539;53.686;9.158;2022-10-18T16:30:09;8.83;;;1.30;;
20758;SDS011;10539;53.686;9.158;2022-10-18T16:32:40;7.40;;;1.10;;
20758;SDS011;10539;53.686;9.158;2022-10-18T16:35:06;11.00;;;1.57;;
20758;SDS011;10539;53.686;9.158;2022-10-18T16:37:34;9.90;;;1.40;;
20758;SDS011;10539;53.686;9.158;2022-10-18T16:40:09;14.40;;;1.67;;
20758;SDS011;10539;53.686;9.158;2022-10-18T16:42:47;6.83;;;1.30;;
20758;SDS011;10539;53.686;9.158;2022-10-18T16:45:13;9.17;;;1.60;;
20758;SDS011;10539;53.686;9.158;2022-10-18T16:47:38;8.83;;;1.50;;
20758;SDS011;10539;53.686;9.158;2022-10-18T16:50:05;7.67;;;1.37;;
20758;SDS011;10539;53.686;9.158;2022-10-18T16:52:32;5.73;;;1.30;;
20758;SDS011;10539;53.686;9.158;2022-10-18T16:54:58;13.83;;;1.40;;
20758;SDS011;10539;53.686;9.158;2022-10-18T16:57:24;8.83;;;1.33;;
20758;SDS011;10539;53.686;9.158;2022-10-18T16:59:50;9.87;;;1.20;;
20758;SDS011;10539;53.686;9.158;2022-10-18T17:02:15;8.63;;;1.30;;
20758;SDS011;10539;53.686;9.158;2022-10-18T17:04:41;10.00;;;1.40;;
20758;SDS011;10539;53.686;9.158;2022-10-18T17:07:08;10.03;;;1.53;;
20758;SDS011;10539;53.686;9.158;2022-10-18T17:09:42;11.07;;;1.40;;
20758;SDS011;10539;53.686;9.158;2022-10-18T17:12:07;9.87;;;1.20;;
20758;SDS011;10539;53.686;9.158;2022-10-18T17:14:33;3.37;;;1.00;;
20758;SDS011;10539;53.686;9.158;2022-10-18T17:17:01;7.53;;;1.13;;
20758;SDS011;10539;53.686;9.158;2022-10-18T17:19:26;5.43;;;1.10;;
20758;SDS011;10539;53.686;9.158;2022-10-18T17:21:52;9.33;;;1.00;;
20758;SDS011;10539;53.686;9.158;2022-10-18T17:24:18;15.13;;;1.80;;
20758;SDS011;10539;53.686;9.158;2022-10-18T17:26:44;8.53;;;1.30;;
20758;SDS011;10539;53.686;9.158;2022-10-18T17:29:09;12.53;;;1.27;;